Time;durP1;ratioP1;P1;durP2;ratioP2;P2;SDS_P1;SDS_P2;PMS_P1;PMS_P2;Temp;Humidity;BMP_temperature;BMP_pressure;BME280_temperature;BME280_humidity;BME280_pressure;Samples;Min_cycle;Max_cycle;Signal;HPM_P1;HPM_P2
2021/08/05 00:02:00;;;;;;;6.32;4.68;;;;;;;22.19;54.58;101335.13;5001800;28;20122;-70
2021/08/05 00:04:26;;;;;;;6.30;4.30;;;;;;;22.18;54.46;101337.97;5000908;28;20057;-69
2021/08/05 00:06:52;;;;;;;6.70;4.90;;;;;;;22.20;54.47;101343.91;4998408;28;20100;-69
2021/08/05 00:09:17;;;;;;;6.68;4.70;;;;;;;22.20;54.47;101343.91;4997713;28;20034;-70
2021/08/05 00:11:43;;;;;;;6.47;4.82;;;;;;;22.19;54.82;101336.97;5008363;28;20092;-70
2021/08/05 00:14:08;;;;;;;7.63;4.90;;;;;;;22.19;54.55;101331.66;5008281;28;20499;-69
2021/08/05 00:16:34;;;;;;;7.00;4.57;;;;;;;22.18;54.58;101332.66;5005282;28;20096;-70
2021/08/05 00:18:59;;;;;;;6.55;4.68;;;;;;;22.18;54.91;101325.53;5006570;28;20099;-68
2021/08/05 00:21:25;;;;;;;5.53;4.47;;;;;;;22.11;55.10;101314.03;5005977;28;20037;-69
2021/08/05 00:23:53;;;;;;;6.65;4.55;;;;;;;22.10;54.77;101309.72;5008500;28;20029;-69
2021/08/05 00:26:19;;;;;;;6.50;4.55;;;;;;;22.16;54.70;101316.13;5005796;28;20460;-70
2021/08/05 00:28:44;;;;;;;7.53;4.65;;;;;;;22.11;55.08;101310.53;5004439;28;20056;-70
2021/08/05 00:31:11;;;;;;;5.68;4.55;;;;;;;22.11;54.89;101305.25;5008260;28;20045;-69
2021/08/05 00:33:37;;;;;;;6.53;4.25;;;;;;;22.12;54.78;101314.84;5007127;28;20069;-69
2021/08/05 00:36:03;;;;;;;5.32;4.03;;;;;;;22.10;55.01;101308.91;5006902;28;20487;-69
2021/08/05 00:38:29;;;;;;;6.80;4.55;;;;;;;22.12;55.10;101322.81;5004345;28;20044;-69
2021/08/05 00:40:55;;;;;;;6.40;4.32;;;;;;;22.13;54.92;101329.75;4999096;28;20046;-69
2021/08/05 00:43:21;;;;;;;6.85;4.07;;;;;;;22.08;55.06;101313.53;5001794;28;20042;-70
2021/08/05 00:45:47;;;;;;;5.75;4.35;;;;;;;22.10;54.88;101319.50;5003658;28;20440;-68
2021/08/05 00:48:13;;;;;;;5.95;4.47;;;;;;;21.94;54.86;101294.78;5000679;28;20038;-69
2021/08/05 00:50:38;;;;;;;6.45;4.68;;;;;;;22.07;55.00;101312.72;5001679;28;20546;-70
2021/08/05 00:53:05;;;;;;;7.03;4.95;;;;;;;22.10;54.84;101317.69;4999070;28;20073;-69
2021/08/05 00:55:31;;;;;;;6.18;4.32;;;;;;;22.09;54.84;101307.25;5015837;28;20042;-69
2021/08/05 00:57:56;;;;;;;9.10;4.40;;;;;;;22.08;55.09;101310.88;4996192;28;20108;-69
2021/08/05 01:00:24;;;;;;;5.68;4.40;;;;;;;22.07;55.00;101294.16;4997472;28;20045;-69
2021/08/05 01:03:05;;;;;;;5.93;4.32;;;;;;;22.05;54.94;101296.16;4999988;28;20107;-68
2021/08/05 01:05:37;;;;;;;5.35;4.03;;;;;;;22.05;55.11;101290.88;4998591;28;20030;-70
2021/08/05 01:08:09;;;;;;;7.03;4.88;;;;;;;22.00;55.30;101283.44;5000567;28;20034;-70
2021/08/05 01:10:56;;;;;;;6.53;4.35;;;;;;;22.06;55.17;101289.84;4981949;28;20038;-69
2021/08/05 01:13:55;;;;;;;7.03;4.57;;;;;;;22.06;55.10;101291.69;5007543;28;20044;-69
2021/08/05 01:16:29;;;;;;;5.68;4.40;;;;;;;21.98;55.03;101274.03;5001495;28;20057;-70
2021/08/05 01:19:01;;;;;;;7.07;4.10;;;;;;;22.00;55.33;101278.13;5016835;28;20042;-69
2021/08/05 01:21:45;;;;;;;5.93;4.13;;;;;;;22.03;55.05;101282.25;5001770;28;20036;-70
2021/08/05 01:24:13;;;;;;;7.00;4.72;;;;;;;22.02;55.17;101278.75;5005359;28;20025;-70
2021/08/05 01:26:48;;;;;;;6.38;4.25;;;;;;;22.02;55.36;101272.63;5017268;28;20117;-70
2021/08/05 01:29:17;;;;;;;6.10;4.30;;;;;;;22.01;55.14;101271.81;5004513;28;20626;-69
2021/08/05 01:31:45;;;;;;;6.63;4.47;;;;;;;22.02;55.35;101257.56;5001129;28;20029;-69
2021/08/05 01:34:13;;;;;;;5.75;4.38;;;;;;;21.96;55.33;101253.00;5001892;28;20502;-70
2021/08/05 01:36:41;;;;;;;6.32;4.55;;;;;;;21.99;55.32;101257.91;5001806;28;20124;-69
2021/08/05 01:39:07;;;;;;;6.70;4.57;;;;;;;22.00;55.51;101256.91;5005633;28;20065;-70
2021/08/05 01:41:33;;;;;;;6.47;4.45;;;;;;;21.99;55.46;101257.09;5018452;28;20503;-70
2021/08/05 01:43:59;;;;;;;6.28;4.55;;;;;;;21.99;55.04;101257.91;5008345;28;20046;-69
2021/08/05 01:46:26;;;;;;;4.93;3.72;;;;;;;22.00;55.33;101250.78;4998911;28;20480;-70
2021/08/05 01:48:54;;;;;;;6.40;4.68;;;;;;;21.96;55.19;101249.50;5007665;28;20030;-69
2021/08/05 01:51:21;;;;;;;5.05;4.03;;;;;;;21.98;55.18;101248.31;5002684;28;20029;-70
2021/08/05 01:53:49;;;;;;;5.90;4.70;;;;;;;21.97;55.56;101241.38;5004561;28;20601;-69
2021/08/05 01:56:18;;;;;;;5.70;4.10;;;;;;;21.97;55.49;101243.22;5002110;28;20038;-69
2021/08/05 01:58:43;;;;;;;8.27;4.68;;;;;;;21.95;55.31;101248.69;5019219;28;20041;-70
2021/08/05 02:01:09;;;;;;;6.65;4.47;;;;;;;21.94;55.58;101244.41;4982578;28;20026;-70
2021/08/05 02:03:35;;;;;;;5.82;4.40;;;;;;;21.95;55.57;101245.22;5000023;28;20054;-70
2021/08/05 02:06:22;;;;;;;6.53;4.15;;;;;;;21.95;55.29;101251.34;5004020;28;20479;-69
2021/08/05 02:08:59;;;;;;;5.90;3.85;;;;;;;21.95;55.13;101247.88;5015133;28;20034;-69
2021/08/05 02:11:27;;;;;;;6.32;4.50;;;;;;;21.94;55.25;101240.94;5003120;28;20045;-70
2021/08/05 02:13:55;;;;;;;5.47;3.70;;;;;;;21.90;55.61;101239.63;5002204;28;20034;-71
2021/08/05 02:16:25;;;;;;;5.25;4.18;;;;;;;21.91;55.34;101236.00;5000895;28;20033;-70
2021/08/05 02:18:52;;;;;;;5.30;4.07;;;;;;;21.92;55.34;101246.41;5001299;28;20030;-70
2021/08/05 02:21:24;;;;;;;6.82;4.55;;;;;;;21.94;55.63;101238.28;5001076;28;20450;-69
2021/08/05 02:23:52;;;;;;;6.40;4.43;;;;;;;21.94;55.24;101246.22;5021005;28;20060;-70
2021/08/05 02:26:19;;;;;;;6.63;4.43;;;;;;;21.92;55.38;101235.00;5007847;28;20033;-70
2021/08/05 02:28:47;;;;;;;6.30;4.65;;;;;;;21.92;55.65;101227.84;5003439;28;20064;-69
2021/08/05 02:31:13;;;;;;;5.47;4.13;;;;;;;21.86;55.56;101220.63;5002378;28;20049;-70
2021/08/05 02:33:41;;;;;;;5.82;4.15;;;;;;;21.91;55.74;101230.69;5000890;28;20396;-70
2021/08/05 02:36:06;;;;;;;6.35;4.25;;;;;;;21.88;55.75;101231.84;5003098;28;20088;-70
2021/08/05 02:38:32;;;;;;;5.38;3.92;;;;;;;21.90;55.28;101232.53;5001589;28;20042;-70
2021/08/05 02:40:58;;;;;;;6.43;4.25;;;;;;;21.88;55.62;101229.19;5004196;28;20034;-70
2021/08/05 02:43:28;;;;;;;6.72;4.28;;;;;;;21.88;55.44;101228.38;5003632;28;20645;-69
2021/08/05 02:45:55;;;;;;;6.50;4.00;;;;;;;21.82;55.52;101218.53;4999903;28;20034;-69
2021/08/05 02:48:22;;;;;;;4.63;4.00;;;;;;;21.88;55.71;101229.19;5004573;28;20080;-70
2021/08/05 02:50:48;;;;;;;6.07;4.03;;;;;;;21.83;55.77;101220.16;5002024;28;20030;-69
2021/08/05 02:53:15;;;;;;;6.10;4.35;;;;;;;21.84;55.57;101216.50;5000425;28;20041;-70
2021/08/05 02:55:43;;;;;;;6.25;4.55;;;;;;;21.88;55.55;101223.06;5002400;28;20046;-69
2021/08/05 02:58:10;;;;;;;6.70;4.57;;;;;;;21.84;55.52;101219.97;4999599;28;20662;-69
2021/08/05 03:00:36;;;;;;;5.97;3.83;;;;;;;21.80;55.52;101209.94;5002498;28;20640;-69
2021/08/05 03:03:03;;;;;;;5.32;3.92;;;;;;;21.86;55.48;101225.91;5015248;28;20050;-69
2021/08/05 03:05:29;;;;;;;6.53;4.70;;;;;;;21.85;55.58;101220.81;5002489;28;20122;-69
2021/08/05 03:07:55;;;;;;;5.07;3.55;;;;;;;21.86;55.75;101220.63;5002793;28;20038;-69
2021/08/05 03:10:20;;;;;;;4.82;4.00;;;;;;;21.84;55.56;101221.81;5003156;28;20040;-70
2021/08/05 03:12:46;;;;;;;5.68;4.03;;;;;;;21.83;55.65;101215.69;5000138;28;20080;-69
2021/08/05 03:15:13;;;;;;;5.43;4.20;;;;;;;21.82;55.80;101221.16;5006886;28;20361;-69
2021/08/05 03:17:39;;;;;;;4.63;3.83;;;;;;;21.81;55.60;101217.69;5007380;28;20515;-70
2021/08/05 03:20:06;;;;;;;5.80;4.07;;;;;;;21.80;55.76;101209.94;5003783;28;20038;-70
2021/08/05 03:22:32;;;;;;;6.18;3.88;;;;;;;21.80;55.73;101210.75;4999513;28;20037;-70
2021/08/05 03:24:57;;;;;;;5.47;4.20;;;;;;;21.78;55.87;101204.81;5000922;28;20041;-69
2021/08/05 03:27:23;;;;;;;5.80;4.30;;;;;;;21.76;55.58;101198.06;5001217;28;20479;-70
2021/08/05 03:29:48;;;;;;;5.53;4.13;;;;;;;21.80;55.90;101209.94;4984039;28;21370;-69
2021/08/05 03:32:14;;;;;;;4.68;3.58;;;;;;;21.81;55.73;101207.09;5003861;28;20026;-70
2021/08/05 03:34:39;;;;;;;4.57;4.00;;;;;;;21.81;55.58;101204.44;5000778;28;20038;-70
2021/08/05 03:37:05;;;;;;;5.93;4.03;;;;;;;21.80;55.81;101208.09;5003099;28;20042;-69
2021/08/05 03:39:30;;;;;;;4.95;4.10;;;;;;;21.75;55.88;101188.47;5000975;28;20038;-70
2021/08/05 03:41:57;;;;;;;5.65;4.00;;;;;;;21.70;55.66;101187.16;5000541;28;20065;-70
2021/08/05 03:44:22;;;;;;;5.78;3.92;;;;;;;21.78;55.63;101194.22;4998569;28;20030;-69
2021/08/05 03:46:48;;;;;;;5.07;3.90;;;;;;;21.78;55.70;101188.91;5004568;28;20092;-70
2021/08/05 03:49:13;;;;;;;5.93;4.00;;;;;;;21.75;55.66;101193.75;5006129;28;20047;-70
2021/08/05 03:51:39;;;;;;;6.65;4.13;;;;;;;21.78;55.54;101186.25;4997977;28;20046;-69
2021/08/05 03:54:04;;;;;;;5.32;3.80;;;;;;;21.74;55.89;101184.16;5000633;28;20526;-69
2021/08/05 03:56:32;;;;;;;5.53;3.80;;;;;;;21.77;56.04;101186.44;4999835;28;20041;-69
2021/08/05 03:58:57;;;;;;;6.65;4.30;;;;;;;21.75;55.72;101183.97;4999892;28;20049;-70
2021/08/05 04:01:23;;;;;;;6.65;4.28;;;;;;;21.77;55.87;101181.16;5002188;28;20049;-70
2021/08/05 04:03:48;;;;;;;5.93;4.00;;;;;;;21.72;55.68;101176.38;5000737;28;20069;-69
2021/08/05 04:06:14;;;;;;;5.75;4.20;;;;;;;21.76;55.87;101180.31;4998691;28;20035;-70
2021/08/05 04:08:39;;;;;;;7.05;4.15;;;;;;;21.75;55.66;101185.81;5000785;28;20049;-69
2021/08/05 04:11:05;;;;;;;8.25;4.13;;;;;;;21.71;55.96;101178.19;5001007;28;20289;-69
2021/08/05 04:13:31;;;;;;;4.75;3.70;;;;;;;21.71;55.86;101175.56;4999670;28;20120;-69
2021/08/05 04:15:57;;;;;;;5.10;3.90;;;;;;;21.76;55.84;101182.97;5002667;28;20123;-69
2021/08/05 04:18:22;;;;;;;5.10;3.80;;;;;;;21.74;55.80;101176.22;5002098;28;20037;-70
2021/08/05 04:20:48;;;;;;;6.68;4.35;;;;;;;21.69;55.95;101172.25;5000272;28;20041;-70
2021/08/05 04:23:13;;;;;;;5.68;3.78;;;;;;;21.75;55.95;101178.69;5000590;28;20096;-69
2021/08/05 04:25:40;;;;;;;4.65;3.90;;;;;;;21.75;55.79;101177.84;5000723;28;20033;-70
2021/08/05 04:28:05;;;;;;;5.82;4.10;;;;;;;21.76;55.92;101182.97;5002408;28;20030;-70
2021/08/05 04:30:31;;;;;;;6.22;4.28;;;;;;;21.76;55.57;101177.69;5003224;28;20060;-70
2021/08/05 04:32:56;;;;;;;6.53;3.90;;;;;;;21.78;55.77;101169.53;5000185;28;20124;-70
2021/08/05 04:35:22;;;;;;;7.80;4.22;;;;;;;21.78;55.55;101178.31;5000596;28;20049;-69
2021/08/05 04:37:53;;;;;;;5.72;3.95;;;;;;;21.78;55.83;101177.47;4998070;28;20045;-69
2021/08/05 04:40:20;;;;;;;5.10;3.63;;;;;;;21.77;55.58;101179.31;4999829;28;20038;-69
2021/08/05 04:42:46;;;;;;;5.60;4.30;;;;;;;21.78;55.86;101182.78;5000833;28;20042;-70
2021/08/05 04:45:12;;;;;;;6.78;4.03;;;;;;;21.78;55.78;101180.13;5000240;28;20344;-69
2021/08/05 04:47:57;;;;;;;7.32;4.45;;;;;;;21.78;55.50;101173.00;5005671;28;20119;-69
2021/08/05 04:50:25;;;;;;;5.45;3.90;;;;;;;21.81;55.73;101177.13;5020661;28;20042;-69
2021/08/05 04:52:53;;;;;;;5.68;4.28;;;;;;;21.82;55.42;101178.75;5007110;28;20780;-70
2021/08/05 04:55:19;;;;;;;6.13;3.88;;;;;;;21.81;55.50;101175.28;5006682;28;20033;-69
2021/08/05 04:57:52;;;;;;;5.85;4.60;;;;;;;21.82;55.39;101173.44;5005072;28;20111;-70
2021/08/05 05:00:28;;;;;;;5.05;3.90;;;;;;;21.81;55.46;101172.63;5002543;28;20029;-69
2021/08/05 05:02:54;;;;;;;5.78;3.60;;;;;;;21.77;55.57;101167.88;5006006;28;20140;-71
2021/08/05 05:05:20;;;;;;;5.15;3.75;;;;;;;21.80;55.67;101162.22;5005390;28;20120;-69
2021/08/05 05:07:46;;;;;;;5.55;3.90;;;;;;;21.77;55.45;101158.09;5001872;28;20505;-69
2021/08/05 05:10:13;;;;;;;6.45;4.15;;;;;;;21.80;55.61;101165.69;5004289;28;20058;-69
2021/08/05 05:12:39;;;;;;;6.55;4.13;;;;;;;21.80;55.71;101163.03;5006059;28;20038;-69
2021/08/05 05:15:06;;;;;;;5.10;4.00;;;;;;;21.80;55.78;101155.09;5006009;28;20064;-70
2021/08/05 05:17:32;;;;;;;6.60;4.57;;;;;;;21.80;55.49;101151.63;5011262;28;20038;-69
2021/08/05 05:19:57;;;;;;;5.75;4.00;;;;;;;21.82;55.43;101158.38;4990557;28;20049;-70
2021/08/05 05:22:23;;;;;;;5.53;4.03;;;;;;;21.80;55.69;101155.09;5006214;28;20415;-69
2021/08/05 05:24:48;;;;;;;5.32;4.20;;;;;;;21.80;55.45;101156.91;5003611;28;20120;-70
2021/08/05 05:27:14;;;;;;;6.05;4.07;;;;;;;21.82;55.73;101153.06;5005665;28;20546;-70
2021/08/05 05:29:40;;;;;;;5.50;4.05;;;;;;;21.82;55.44;101154.91;5002047;28;20038;-70
2021/08/05 05:32:06;;;;;;;6.95;4.35;;;;;;;21.82;55.27;101150.41;5002405;28;20048;-70
2021/08/05 05:34:32;;;;;;;6.95;4.50;;;;;;;21.80;55.29;101144.47;5005821;28;20100;-69
2021/08/05 05:36:58;;;;;;;6.43;4.30;;;;;;;21.80;55.44;101143.66;5009122;28;20038;-69
2021/08/05 05:39:24;;;;;;;7.60;4.18;;;;;;;21.81;55.35;101148.78;5005490;28;20046;-70
2021/08/05 05:41:49;;;;;;;6.43;4.45;;;;;;;21.85;55.50;101158.00;5015899;28;20505;-70
2021/08/05 05:44:15;;;;;;;7.57;4.57;;;;;;;21.86;55.31;101156.97;4999170;28;20034;-70
2021/08/05 05:46:40;;;;;;;5.65;3.88;;;;;;;21.89;55.32;101155.78;5019925;28;20034;-69
2021/08/05 05:49:06;;;;;;;6.38;4.10;;;;;;;21.89;55.51;101158.44;5004629;28;20038;-69
2021/08/05 05:51:32;;;;;;;6.25;4.25;;;;;;;21.89;55.22;101153.97;5003085;28;20128;-70
2021/08/05 05:53:57;;;;;;;6.40;4.50;;;;;;;21.86;55.42;101140.25;5005232;28;20529;-70
2021/08/05 05:56:23;;;;;;;5.85;4.50;;;;;;;21.91;55.36;101146.66;5009982;28;20100;-70
2021/08/05 05:58:48;;;;;;;5.65;3.95;;;;;;;21.92;55.35;101139.53;5005998;28;20096;-70
2021/08/05 06:01:14;;;;;;;5.93;4.25;;;;;;;21.93;55.11;101144.66;5005866;28;20037;-70
2021/08/05 06:03:39;;;;;;;6.68;4.07;;;;;;;21.94;55.12;101148.94;5004710;28;20054;-69
2021/08/05 06:06:05;;;;;;;5.80;4.35;;;;;;;21.93;54.90;101144.66;5010476;28;20041;-70
2021/08/05 06:08:30;;;;;;;6.88;4.35;;;;;;;21.94;55.09;101141.00;5009833;28;20045;-70
2021/08/05 06:10:56;;;;;;;5.63;4.10;;;;;;;21.93;55.47;101142.00;5004523;28;20126;-69
2021/08/05 06:13:21;;;;;;;6.90;4.47;;;;;;;21.94;54.97;101142.81;5008804;28;20115;-70
2021/08/05 06:15:47;;;;;;;7.05;4.25;;;;;;;21.95;55.38;101144.47;5006763;28;20042;-70
2021/08/05 06:18:13;;;;;;;6.38;4.15;;;;;;;21.95;55.39;101144.47;5006233;28;20041;-70
2021/08/05 06:20:39;;;;;;;6.57;4.53;;;;;;;21.96;55.27;101143.44;5005239;28;20053;-69
2021/08/05 06:23:08;;;;;;;5.38;4.10;;;;;;;21.94;55.55;101141.00;5005919;28;20026;-69
2021/08/05 06:25:34;;;;;;;7.00;4.47;;;;;;;21.96;55.04;101148.75;5017372;28;20037;-70
2021/08/05 06:28:00;;;;;;;5.80;3.92;;;;;;;21.94;55.40;101143.63;5005126;28;20054;-69
2021/08/05 06:30:26;;;;;;;6.72;4.00;;;;;;;21.98;55.11;101152.03;5001306;28;20123;-70
2021/08/05 06:32:52;;;;;;;6.13;4.40;;;;;;;21.98;55.28;101147.56;5003223;28;20054;-69
2021/08/05 06:35:18;;;;;;;5.80;4.45;;;;;;;22.01;55.27;101143.72;4996118;28;20551;-70
2021/08/05 06:37:44;;;;;;;5.82;3.83;;;;;;;21.99;54.96;101138.59;5003518;28;20038;-70
2021/08/05 06:40:10;;;;;;;6.13;4.38;;;;;;;22.02;54.98;101146.16;4999804;28;20199;-70
2021/08/05 06:42:36;;;;;;;5.97;4.30;;;;;;;22.05;55.16;101152.13;5001345;28;20057;-70
2021/08/05 06:45:06;;;;;;;5.93;4.25;;;;;;;22.05;55.16;101146.84;5001400;28;20073;-69
2021/08/05 06:47:33;;;;;;;5.40;3.70;;;;;;;22.08;54.71;101147.28;5002908;28;20026;-69
2021/08/05 06:49:59;;;;;;;5.65;4.10;;;;;;;22.06;54.99;101141.34;5001575;28;20068;-70
2021/08/05 06:52:25;;;;;;;6.75;4.18;;;;;;;22.12;54.71;101153.88;4999731;28;20058;-71
2021/08/05 06:54:50;;;;;;;6.07;4.32;;;;;;;22.16;54.73;101154.31;5003907;28;20108;-70
2021/08/05 06:57:16;;;;;;;5.75;3.92;;;;;;;22.21;54.43;101151.91;5003450;28;20089;-71
2021/08/05 06:59:41;;;;;;;6.15;4.20;;;;;;;22.21;54.64;101152.72;5003828;28;20042;-71
2021/08/05 07:02:07;;;;;;;5.68;4.30;;;;;;;22.24;54.77;101144.41;5004028;28;20081;-71
2021/08/05 07:04:33;;;;;;;5.70;3.80;;;;;;;22.28;54.47;101145.69;5001149;28;20061;-71
2021/08/05 07:06:58;;;;;;;5.47;4.00;;;;;;;22.32;54.44;101140.81;5005661;28;20030;-70
2021/08/05 07:09:23;;;;;;;6.07;4.30;;;;;;;22.36;54.52;101143.91;5006483;28;20073;-71
2021/08/05 07:11:49;;;;;;;7.32;4.40;;;;;;;22.40;54.31;101140.69;5008621;28;20045;-70
2021/08/05 07:14:15;;;;;;;5.50;3.80;;;;;;;22.43;54.04;101134.19;4999289;28;20061;-71
2021/08/05 07:16:40;;;;;;;6.13;3.90;;;;;;;22.49;54.15;101146.72;5006782;28;20061;-71
2021/08/05 07:19:06;;;;;;;5.18;4.30;;;;;;;22.47;54.00;101138.94;5019536;28;20412;-70
2021/08/05 07:21:31;;;;;;;6.82;4.47;;;;;;;22.57;54.07;101150.03;5007972;28;20450;-71
2021/08/05 07:23:57;;;;;;;6.30;4.30;;;;;;;22.57;53.76;101146.56;5006997;28;20033;-71
2021/08/05 07:26:22;;;;;;;5.00;4.07;;;;;;;22.59;53.62;101133.94;5006798;28;20030;-71
2021/08/05 07:28:48;;;;;;;5.85;4.20;;;;;;;22.69;53.54;101144.22;5008403;28;20033;-71
2021/08/05 07:31:14;;;;;;;4.70;3.67;;;;;;;22.70;53.80;101138.72;5021411;28;20073;-70
2021/08/05 07:33:40;;;;;;;7.20;4.68;;;;;;;22.70;53.82;101129.94;5002525;28;20120;-70
2021/08/05 07:36:06;;;;;;;6.10;4.30;;;;;;;22.72;53.77;101127.91;5004358;28;21376;-70
2021/08/05 07:38:31;;;;;;;4.72;3.65;;;;;;;22.81;53.48;101132.91;5006493;28;20049;-70
2021/08/05 07:40:57;;;;;;;5.35;3.95;;;;;;;22.81;53.50;101127.59;5019582;28;20046;-72
2021/08/05 07:43:22;;;;;;;5.63;4.18;;;;;;;22.82;53.41;101126.63;5002015;28;20037;-72
2021/08/05 07:45:48;;;;;;;5.18;3.92;;;;;;;22.88;53.32;101123.19;5004160;28;20033;-73
2021/08/05 07:48:14;;;;;;;4.20;3.70;;;;;;;22.87;53.39;101118.88;5003032;28;20460;-72
2021/08/05 07:50:39;;;;;;;6.68;4.53;;;;;;;22.98;53.45;101135.28;5001543;28;20041;-71
2021/08/05 07:53:05;;;;;;;5.07;4.00;;;;;;;23.00;53.23;101127.97;5002005;28;20041;-73
2021/08/05 07:55:31;;;;;;;5.68;3.80;;;;;;;23.04;53.37;101131.88;5000810;28;20056;-73
2021/08/05 07:57:58;;;;;;;4.30;3.60;;;;;;;23.07;53.14;101123.53;5003400;28;20143;-72
2021/08/05 08:00:23;;;;;;;6.13;4.22;;;;;;;23.03;53.11;101116.97;4999802;28;20034;-73
2021/08/05 08:02:49;;;;;;;4.93;4.07;;;;;;;23.11;53.14;101122.13;5001000;28;20488;-72
2021/08/05 08:05:15;;;;;;;6.75;4.43;;;;;;;23.04;53.55;101108.81;5000379;28;20062;-74
2021/08/05 08:07:42;;;;;;;7.05;4.38;;;;;;;23.08;53.49;101107.38;5003874;28;20030;-74
2021/08/05 08:10:09;;;;;;;6.18;4.35;;;;;;;23.13;53.45;101114.75;5018969;28;20142;-72
2021/08/05 08:12:35;;;;;;;5.25;4.28;;;;;;;23.15;53.22;101113.56;5000482;28;20044;-72
2021/08/05 08:15:01;;;;;;;6.85;4.93;;;;;;;23.12;53.83;101105.16;4996779;28;20037;-72
2021/08/05 08:17:27;;;;;;;7.95;4.50;;;;;;;23.23;53.77;101107.28;4998238;28;20045;-72
2021/08/05 08:19:52;;;;;;;8.05;4.85;;;;;;;23.24;54.27;101102.78;4994889;28;20454;-72
2021/08/05 08:22:18;;;;;;;6.97;4.70;;;;;;;23.31;54.00;101112.44;4996781;28;20077;-76
2021/08/05 08:24:43;;;;;;;6.97;4.45;;;;;;;23.28;54.02;101096.06;4998114;28;20038;-72
2021/08/05 08:27:09;;;;;;;6.93;4.55;;;;;;;23.32;54.02;101106.09;4999254;28;20602;-74
2021/08/05 08:29:35;;;;;;;7.35;4.63;;;;;;;23.33;53.72;101107.72;4995524;28;20439;-76
2021/08/05 08:32:01;;;;;;;7.30;4.65;;;;;;;23.33;53.64;101104.25;5001192;28;20033;-76
2021/08/05 08:34:27;;;;;;;6.93;4.80;;;;;;;23.34;53.85;101112.06;4993616;28;20116;-74
2021/08/05 08:36:52;;;;;;;6.22;4.38;;;;;;;23.22;53.62;101084.38;5000097;28;20058;-76
2021/08/05 08:39:21;;;;;;;7.15;4.80;;;;;;;23.33;53.41;101098.94;5008497;28;20046;-76
2021/08/05 08:41:46;;;;;;;7.13;4.82;;;;;;;23.35;53.37;101102.25;5007003;28;20483;-76
2021/08/05 08:44:13;;;;;;;6.53;4.50;;;;;;;23.38;53.38;101104.50;5006292;28;20044;-76
2021/08/05 08:46:40;;;;;;;7.03;5.03;;;;;;;23.37;53.27;101100.22;5005108;28;20037;-76
2021/08/05 08:49:07;;;;;;;6.70;4.50;;;;;;;23.37;53.29;101094.91;5006683;28;20484;-76
2021/08/05 08:51:34;;;;;;;5.82;4.20;;;;;;;23.35;53.52;101083.66;5016362;28;20053;-76
2021/08/05 08:54:03;;;;;;;6.95;4.70;;;;;;;23.38;53.69;101093.88;5008038;28;20062;-76
2021/08/05 08:56:30;;;;;;;5.43;4.43;;;;;;;23.28;53.71;101078.28;5007222;28;20042;-76
2021/08/05 08:58:58;;;;;;;6.28;4.45;;;;;;;23.40;53.56;101089.19;5007035;28;20112;-76
2021/08/05 09:01:24;;;;;;;7.32;4.95;;;;;;;23.37;53.38;101087.75;5004905;28;20069;-76
2021/08/05 09:03:50;;;;;;;6.72;4.80;;;;;;;23.37;53.29;101082.44;5007368;28;20053;-76
2021/08/05 09:06:16;;;;;;;5.90;4.60;;;;;;;23.40;53.48;101081.22;5005960;28;20403;-76
2021/08/05 09:08:41;;;;;;;7.43;5.10;;;;;;;23.39;53.34;101079.56;5007222;28;20038;-76
2021/08/05 09:11:07;;;;;;;7.85;5.35;;;;;;;23.43;53.50;101081.63;5005661;28;20037;-75
2021/08/05 09:13:33;;;;;;;8.48;6.03;;;;;;;23.37;53.69;101078.97;4972361;28;20030;-76
2021/08/05 09:15:59;;;;;;;9.90;6.70;;;;;;;23.35;53.78;101078.34;5004682;28;20119;-76
2021/08/05 09:18:35;;;;;;;8.45;6.13;;;;;;;23.41;53.20;101072.22;5007944;28;20495;-77
2021/08/05 09:21:21;;;;;;;8.32;7.00;;;;;;;23.44;53.15;101061.19;5006662;28;20061;-79
2021/08/05 09:23:53;;;;;;;7.32;5.20;;;;;;;23.49;53.38;101058.75;5007186;28;20164;-71
2021/08/05 09:26:42;;;;;;;6.72;5.00;;;;;;;23.57;52.96;101053.31;5003247;28;20045;-71
2021/08/05 09:29:14;;;;;;;6.55;5.10;;;;;;;23.63;52.88;101055.16;4972486;28;20038;-72
2021/08/05 09:31:51;;;;;;;8.75;4.97;;;;;;;23.68;52.92;101054.56;5005384;28;20033;-72
2021/08/05 09:34:19;;;;;;;7.10;5.00;;;;;;;23.73;52.57;101052.13;4984689;28;20034;-72
2021/08/05 09:36:46;;;;;;;7.70;5.20;;;;;;;23.75;52.58;101045.59;5008248;28;20057;-71
2021/08/05 09:39:19;;;;;;;7.35;4.80;;;;;;;23.76;52.64;101044.56;4986032;28;20116;-71
2021/08/05 09:41:51;;;;;;;8.23;5.20;;;;;;;23.86;52.37;101043.34;5011125;28;20451;-71
2021/08/05 09:44:16;;;;;;;9.52;5.82;;;;;;;23.87;52.41;101037.84;4969206;28;20790;-71
2021/08/05 09:46:42;;;;;;;6.75;5.30;;;;;;;24.00;52.55;101047.69;5008834;28;20041;-72
2021/08/05 09:49:16;;;;;;;10.73;5.95;;;;;;;23.97;52.54;101048.09;4987401;28;20054;-71
2021/08/05 09:51:42;;;;;;;6.00;4.95;;;;;;;23.94;52.29;101048.50;5008518;28;20598;-71
2021/08/05 09:54:08;;;;;;;8.43;6.00;;;;;;;23.84;52.52;101032.09;4986375;28;20071;-72
2021/08/05 09:56:36;;;;;;;7.38;5.30;;;;;;;23.86;52.16;101035.38;5009892;28;20054;-72
2021/08/05 09:59:10;;;;;;;6.78;4.97;;;;;;;23.84;52.41;101035.59;4985341;28;20099;-71
2021/08/05 10:01:36;;;;;;;7.75;5.47;;;;;;;23.86;52.06;101035.38;5001590;28;20495;-72
2021/08/05 10:04:23;;;;;;;7.35;5.50;;;;;;;23.88;52.27;101036.00;5009773;28;20132;-72
2021/08/05 10:07:06;;;;;;;5.68;4.82;;;;;;;23.83;52.27;101023.31;4977989;28;20396;-71
2021/08/05 10:09:41;;;;;;;6.70;5.15;;;;;;;23.84;52.20;101018.81;4994564;28;20037;-71
2021/08/05 10:12:14;;;;;;;7.03;5.35;;;;;;;23.89;52.15;101027.84;5008823;28;20038;-71
2021/08/05 10:14:41;;;;;;;8.48;6.22;;;;;;;23.84;52.24;101021.47;4997599;28;20071;-71
2021/08/05 10:17:08;;;;;;;6.00;4.90;;;;;;;23.83;52.32;101025.97;4986498;28;20026;-72
2021/08/05 10:19:42;;;;;;;7.72;5.10;;;;;;;23.79;52.40;101022.91;5010525;28;20146;-71
2021/08/05 10:22:09;;;;;;;6.10;5.50;;;;;;;23.78;52.16;101023.09;4974127;28;20042;-71
2021/08/05 10:24:38;;;;;;;8.52;5.55;;;;;;;23.77;52.46;101021.47;5009694;28;20395;-71
2021/08/05 10:27:06;;;;;;;8.30;5.75;;;;;;;23.76;52.46;101020.66;4978200;28;20037;-72
2021/08/05 10:29:32;;;;;;;10.93;5.63;;;;;;;23.74;52.55;101019.22;5024370;28;20369;-71
2021/08/05 10:31:59;;;;;;;7.35;5.32;;;;;;;23.69;52.53;101011.81;4983659;28;20038;-72
2021/08/05 10:34:24;;;;;;;6.63;5.40;;;;;;;23.73;52.42;101022.91;5009676;28;20041;-71
2021/08/05 10:36:50;;;;;;;6.68;5.00;;;;;;;23.60;52.68;101002.41;4981785;28;20045;-72
2021/08/05 10:39:16;;;;;;;7.10;5.60;;;;;;;23.62;52.65;100994.22;5009308;28;20042;-72
2021/08/05 10:41:42;;;;;;;7.90;5.03;;;;;;;23.69;52.59;101014.47;4985094;28;20038;-71
2021/08/05 10:44:08;;;;;;;6.60;4.50;;;;;;;23.69;52.46;101003.03;5022874;28;20037;-71
2021/08/05 10:46:35;;;;;;;8.30;4.72;;;;;;;23.68;52.55;101010.19;4984019;28;20026;-71
2021/08/05 10:49:05;;;;;;;5.80;4.70;;;;;;;23.68;52.39;101006.69;4996940;28;20073;-72
2021/08/05 10:51:35;;;;;;;6.07;4.60;;;;;;;23.72;52.64;100999.97;5006847;28;20044;-76
2021/08/05 10:54:01;;;;;;;7.32;4.68;;;;;;;23.67;52.79;100997.09;4980423;28;20121;-76
2021/08/05 10:56:30;;;;;;;5.80;4.70;;;;;;;23.63;52.91;100995.84;5022469;28;20483;-75
2021/08/05 10:59:20;;;;;;;6.10;4.97;;;;;;;23.68;52.86;100998.72;4983017;28;20033;-76
2021/08/05 11:01:54;;;;;;;5.82;4.63;;;;;;;23.61;52.90;100979.28;4993379;28;20022;-75
2021/08/05 11:04:32;;;;;;;6.35;4.68;;;;;;;23.71;52.95;100977.06;4970772;28;20049;-71
2021/08/05 11:07:26;;;;;;;7.00;5.25;;;;;;;23.70;52.89;100978.09;5008685;28;20069;-71
2021/08/05 11:10:11;;;;;;;6.85;4.88;;;;;;;23.67;53.08;100979.28;4993184;28;20044;-71
2021/08/05 11:12:44;;;;;;;5.47;4.70;;;;;;;23.68;53.10;100972.94;5001456;28;20033;-71
2021/08/05 11:15:22;;;;;;;7.03;5.20;;;;;;;23.69;52.82;100971.13;4982655;28;20401;-70
2021/08/05 11:18:15;;;;;;;6.93;5.43;;;;;;;23.67;52.94;100971.31;5021132;28;20049;-72
2021/08/05 11:21:12;;;;;;;6.50;5.05;;;;;;;23.69;52.87;100965.78;5001911;28;20049;-71
2021/08/05 11:23:39;;;;;;;6.00;5.18;;;;;;;23.69;52.98;100963.13;4983084;28;20034;-71
2021/08/05 11:26:08;;;;;;;7.00;5.00;;;;;;;23.69;52.93;100961.31;4985419;28;20041;-71
2021/08/05 11:28:46;;;;;;;7.80;4.90;;;;;;;23.68;52.84;100964.16;4982596;28;20258;-71